Strona główna
METAR-TAF:

METAR-TAF

Lotnisko :

Port lotniczy Bastia-Poretta

Bastia, Francja

Szerokość geograficzna: 42-33N, Długość geograficzna: 009-29E, wysokość: 8 m

Aktualna obserwacja pogody

Raport powstał 15 minut temu, godzina 00:00 UTC
Wiatr 3 kt od południowy zachód
Temperatura 23°C
Wilgotność 78%
Ciśnienie 1016 hPa
Widzialność 10 km lub więcej
Brak chmur poniżej 1500 m i brak chmur cumulonimbus

METAR: LFKB 240000Z AUTO 22003KT CAVOK 23/19 Q1016 NOSIG

czas: 02:15 (00:15 UTC)

Prognoza

Raport powstał 4 godziny i 15 minut temu, godzina 20:00 UTC
Prognoza ważna od 23 godzina 21 UTC do 24 godzina 21 UTC
Wiatr 4 kt od zachodnio-południowy zachód
Widzialność 10 km lub więcej
Brak chmur poniżej 1500 m i brak chmur cumulonimbus
Stopniowe zmiany
od 24 godzina 08 UTC do 24 godzina 09 UTC
Wiatr 10 kt od północny wschód
Stopniowe zmiany
od 24 godzina 16 UTC do 24 godzina 18 UTC
Wiatr 3 kt z kierunków zmiennych

TAF: LFKB 232000Z 2321/2421 24004KT CAVOK TX34/2412Z TN24/2403Z BECMG 2408/2409 04010KT BECMG 2416/2418 VRB03KT

Obserwacja i prognoza pogody dla ponad 4000 lotnisk (raport METAR i TAF).

Dostępne stacje oznaczono żółtymi i czerwonymi punktami na mapie.

Najedź kursorem aby zobaczyć nazwę stacji.

Kliknij aby zobaczyć obserwacje i prognozy pogody.

Aby zmienić mapę: kliknij na zielony przycisk z czarnym krzyżykiem, aby powiększyć; na zielony przycisk z myślnikiem, aby pomniejszyć; na zielone strzałki, aby przejść do map sąsiednich.


METAR-TAF: